Time;durP1;ratioP1;P1;durP2;ratioP2;P2;SDS_P1;SDS_P2;PMS_P1;PMS_P2;Temp;Humidity;BMP_temperature;BMP_pressure;BME280_temperature;BME280_humidity;BME280_pressure;Samples;Min_cycle;Max_cycle;Signal;HPM_P1;HPM_P2
2022/03/01 00:01:55;;;;;;;7.93;5.10;;;7.10;46.30;;;;;;5020023;28;20133;-87
2022/03/01 00:04:22;;;;;;;7.80;4.70;;;7.10;46.30;;;;;;4984388;28;20132;-87
2022/03/01 00:06:48;;;;;;;8.40;4.82;;;7.10;46.30;;;;;;5003807;28;20203;-92
2022/03/01 00:09:14;;;;;;;7.78;4.85;;;7.10;46.30;;;;;;5008758;28;20050;-88
2022/03/01 00:11:40;;;;;;;8.05;4.68;;;7.10;46.30;;;;;;5023627;28;20092;-92
2022/03/01 00:14:06;;;;;;;8.50;4.97;;;7.00;46.30;;;;;;5028897;28;20121;-89
2022/03/01 00:16:32;;;;;;;8.98;4.90;;;7.00;46.30;;;;;;5042305;28;20453;-91
2022/03/01 00:18:59;;;;;;;7.15;4.22;;;7.00;46.30;;;;;;5013216;28;20041;-85
2022/03/01 00:21:26;;;;;;;7.47;4.45;;;7.00;46.30;;;;;;5008871;28;20074;-85
2022/03/01 00:23:52;;;;;;;7.05;4.30;;;7.00;46.30;;;;;;5009786;28;20034;-86
2022/03/01 00:26:18;;;;;;;7.57;4.07;;;7.00;46.20;;;;;;5010302;28;20590;-91
2022/03/01 00:28:44;;;;;;;7.97;4.50;;;7.00;46.20;;;;;;5011891;28;20507;-90
2022/03/01 00:31:10;;;;;;;5.90;3.92;;;7.00;46.20;;;;;;5008935;28;20038;-90
2022/03/01 00:33:37;;;;;;;7.95;4.35;;;7.00;46.20;;;;;;5009514;28;20115;-85
2022/03/01 00:36:03;;;;;;;6.80;3.60;;;7.00;46.10;;;;;;5010556;28;20029;-91
2022/03/01 00:38:29;;;;;;;7.57;4.20;;;7.00;46.10;;;;;;5010896;28;20092;-88
2022/03/01 00:40:56;;;;;;;6.10;4.15;;;7.00;46.10;;;;;;5025336;28;20045;-88
2022/03/01 00:43:22;;;;;;;6.10;3.80;;;7.00;46.10;;;;;;5026575;28;20041;-92
2022/03/01 00:45:52;;;;;;;7.60;4.55;;;7.00;46.10;;;;;;5012096;28;20037;-92
2022/03/01 00:48:18;;;;;;;6.68;3.83;;;7.00;46.20;;;;;;5015989;28;20046;-92
2022/03/01 00:50:44;;;;;;;7.40;4.53;;;6.90;46.10;;;;;;5017691;28;20034;-87
2022/03/01 00:53:11;;;;;;;6.80;4.07;;;6.90;46.10;;;;;;5009173;28;20636;-86
2022/03/01 00:55:37;;;;;;;7.85;4.03;;;7.00;46.20;;;;;;5022353;28;20038;-86
2022/03/01 00:58:04;;;;;;;8.32;4.40;;;6.90;46.10;;;;;;5033079;28;20132;-88
2022/03/01 01:00:31;;;;;;;6.07;3.67;;;6.90;46.10;;;;;;5003860;28;20038;-88
2022/03/01 01:02:57;;;;;;;8.02;3.70;;;6.90;46.00;;;;;;5009471;28;20132;-88
2022/03/01 01:05:23;;;;;;;5.65;3.80;;;6.90;46.00;;;;;;5025799;28;20480;-89
2022/03/01 01:07:49;;;;;;;5.10;3.85;;;6.90;46.00;;;;;;5005734;28;20068;-92
2022/03/01 01:10:16;;;;;;;5.03;3.50;;;6.90;46.00;;;;;;5008957;28;20030;-89
2022/03/01 01:12:42;;;;;;;6.78;3.63;;;6.90;46.00;;;;;;5008166;28;20072;-88
2022/03/01 01:15:10;;;;;;;7.50;4.03;;;6.90;45.90;;;;;;5008805;28;20068;-88
2022/03/01 01:17:36;;;;;;;6.80;3.83;;;6.90;45.90;;;;;;4991839;28;20475;-89
2022/03/01 01:20:05;;;;;;;6.78;3.97;;;6.90;45.90;;;;;;5031661;28;20445;-88
2022/03/01 01:22:40;;;;;;;5.97;4.00;;;6.90;45.90;;;;;;5014339;28;20037;-89
2022/03/01 01:25:14;;;;;;;6.65;3.53;;;6.80;45.80;;;;;;5032405;28;20041;-91
2022/03/01 01:27:44;;;;;;;7.45;3.75;;;6.90;45.90;;;;;;5009245;28;20128;-91
2022/03/01 01:30:12;;;;;;;6.82;3.80;;;6.80;45.80;;;;;;5008410;28;20029;-89
2022/03/01 01:32:39;;;;;;;5.88;3.75;;;6.90;45.90;;;;;;5008669;28;20083;-90
2022/03/01 01:35:07;;;;;;;6.75;3.85;;;6.90;45.90;;;;;;5008660;28;20038;-88
2022/03/01 01:37:33;;;;;;;7.20;3.83;;;6.80;45.90;;;;;;5007685;28;20428;-89
2022/03/01 01:40:00;;;;;;;10.40;4.45;;;6.80;45.90;;;;;;5009575;28;20149;-90
2022/03/01 01:42:26;;;;;;;7.40;3.85;;;6.80;45.90;;;;;;4992319;28;20065;-89
2022/03/01 01:44:53;;;;;;;10.60;4.75;;;6.80;46.00;;;;;;5008565;28;20096;-86
2022/03/01 01:47:18;;;;;;;6.82;4.53;;;6.80;45.90;;;;;;5007678;28;20030;-88
2022/03/01 01:49:44;;;;;;;5.75;3.92;;;6.80;45.90;;;;;;5008859;28;20596;-88
2022/03/01 01:52:10;;;;;;;6.78;4.20;;;6.80;45.90;;;;;;4990754;28;20581;-88
2022/03/01 01:54:36;;;;;;;8.20;4.00;;;6.80;45.90;;;;;;5023982;28;20118;-88
2022/03/01 01:57:16;;;;;;;7.90;3.92;;;6.80;46.00;;;;;;5024076;28;20125;-89
2022/03/01 01:59:42;;;;;;;7.88;3.97;;;6.80;46.00;;;;;;5009944;28;20037;-89
2022/03/01 02:02:17;;;;;;;6.82;4.30;;;6.80;45.90;;;;;;5007723;28;20091;-88
2022/03/01 02:04:43;;;;;;;7.05;4.20;;;6.80;45.90;;;;;;5011880;28;20038;-88
2022/03/01 02:07:10;;;;;;;6.43;3.95;;;6.80;45.90;;;;;;5030998;28;20693;-85
2022/03/01 02:09:37;;;;;;;6.20;3.60;;;6.80;45.90;;;;;;5014822;28;20030;-89
2022/03/01 02:12:03;;;;;;;7.80;3.97;;;6.80;45.90;;;;;;5020643;28;20496;-92
2022/03/01 02:14:35;;;;;;;8.07;4.03;;;6.80;45.80;;;;;;5015760;28;20467;-86
2022/03/01 02:17:04;;;;;;;5.53;3.45;;;6.80;45.80;;;;;;5026755;28;21141;-93
2022/03/01 02:19:31;;;;;;;6.68;4.15;;;6.80;45.80;;;;;;5009153;28;20102;-86
2022/03/01 02:21:57;;;;;;;7.70;4.05;;;6.70;45.70;;;;;;5022618;28;20080;-85
2022/03/01 02:24:28;;;;;;;6.15;3.92;;;6.70;45.70;;;;;;5007511;28;20049;-88
2022/03/01 02:26:55;;;;;;;9.07;4.13;;;6.80;45.70;;;;;;5011839;28;20038;-87
2022/03/01 02:29:22;;;;;;;5.88;4.20;;;6.70;45.70;;;;;;5022361;28;20029;-88
2022/03/01 02:31:49;;;;;;;6.63;4.03;;;6.70;45.70;;;;;;5010659;28;20064;-90
2022/03/01 02:34:15;;;;;;;6.78;4.05;;;6.70;45.70;;;;;;4994863;28;20038;-91
2022/03/01 02:36:41;;;;;;;9.18;4.88;;;6.70;45.70;;;;;;5012289;28;20111;-91
2022/03/01 02:39:07;;;;;;;7.90;4.28;;;6.70;45.70;;;;;;5017608;28;20038;-92
2022/03/01 02:41:38;;;;;;;6.50;4.45;;;6.70;45.70;;;;;;5011271;28;20085;-87
2022/03/01 02:44:04;;;;;;;8.30;4.55;;;6.70;45.70;;;;;;4989050;28;20603;-89
2022/03/01 02:46:31;;;;;;;9.85;4.63;;;6.70;45.70;;;;;;5006709;28;20104;-88
2022/03/01 02:48:57;;;;;;;9.68;5.35;;;6.70;45.70;;;;;;5007165;28;20125;-88
2022/03/01 02:51:22;;;;;;;10.65;4.70;;;6.70;45.70;;;;;;5001605;28;20125;-88
2022/03/01 02:53:48;;;;;;;10.57;5.18;;;6.70;45.80;;;;;;5007999;28;20041;-83
2022/03/01 02:56:15;;;;;;;8.43;4.45;;;6.60;45.80;;;;;;5009012;28;20030;-88
2022/03/01 02:58:41;;;;;;;9.05;5.07;;;6.60;46.30;;;;;;5009397;28;20033;-88
2022/03/01 03:01:08;;;;;;;9.23;5.18;;;6.70;45.80;;;;;;5009546;28;20466;-89
2022/03/01 03:03:34;;;;;;;8.15;4.65;;;6.70;45.80;;;;;;5008342;28;20062;-89
2022/03/01 03:06:00;;;;;;;11.20;4.78;;;6.70;45.80;;;;;;5005979;28;20052;-89
2022/03/01 03:08:26;;;;;;;7.75;4.78;;;6.70;45.90;;;;;;5007153;28;20449;-88
2022/03/01 03:10:52;;;;;;;8.02;5.25;;;6.60;45.80;;;;;;5005982;28;20060;-85
2022/03/01 03:13:19;;;;;;;6.97;4.63;;;6.70;45.90;;;;;;5007084;28;20045;-87
2022/03/01 03:15:47;;;;;;;9.18;5.25;;;6.60;45.80;;;;;;5003965;28;20040;-95
2022/03/01 03:18:14;;;;;;;9.52;5.07;;;6.60;45.80;;;;;;5011797;28;20045;-88
2022/03/01 03:20:40;;;;;;;6.43;4.65;;;6.60;45.80;;;;;;5032124;28;20061;-92
2022/03/01 03:23:06;;;;;;;7.95;4.25;;;6.60;45.70;;;;;;5029749;28;20124;-95
2022/03/01 03:25:33;;;;;;;7.40;4.60;;;6.60;45.70;;;;;;5012257;28;20041;-89
2022/03/01 03:27:59;;;;;;;9.57;4.53;;;6.60;45.70;;;;;;4999659;28;20365;-88
2022/03/01 03:30:26;;;;;;;7.78;4.97;;;6.60;45.70;;;;;;5006846;28;20073;-86
2022/03/01 03:32:52;;;;;;;10.77;4.82;;;6.60;45.70;;;;;;4992382;28;20041;-81
2022/03/01 03:35:19;;;;;;;6.82;4.57;;;6.60;45.70;;;;;;5006320;28;20041;-86
2022/03/01 03:37:45;;;;;;;7.38;4.70;;;6.60;45.80;;;;;;5005857;28;20057;-84
2022/03/01 03:40:12;;;;;;;9.30;5.32;;;6.50;45.80;;;;;;5019860;28;20034;-84
2022/03/01 03:42:39;;;;;;;7.85;4.90;;;6.60;46.00;;;;;;5005352;28;20037;-84
2022/03/01 03:45:05;;;;;;;10.15;5.00;;;6.60;46.00;;;;;;5005269;28;20050;-85
2022/03/01 03:47:32;;;;;;;7.82;5.50;;;6.50;46.00;;;;;;5009430;28;20488;-84
2022/03/01 03:49:58;;;;;;;8.00;4.57;;;6.60;46.00;;;;;;5009750;28;20181;-85
2022/03/01 03:52:24;;;;;;;8.55;4.90;;;6.60;46.10;;;;;;5005608;28;20042;-86
2022/03/01 03:54:50;;;;;;;7.97;5.20;;;6.50;46.00;;;;;;5007482;28;20393;-84
2022/03/01 03:57:17;;;;;;;10.05;4.80;;;6.60;46.10;;;;;;5008877;28;20040;-83
2022/03/01 03:59:43;;;;;;;7.95;5.07;;;6.60;46.00;;;;;;5021281;28;20029;-85
2022/03/01 04:02:09;;;;;;;7.15;4.95;;;6.50;46.00;;;;;;5007073;28;20056;-86
2022/03/01 04:04:36;;;;;;;9.88;5.00;;;6.50;46.00;;;;;;5009280;28;20128;-86
2022/03/01 04:07:03;;;;;;;6.90;4.78;;;6.50;46.00;;;;;;5009334;28;20038;-83
2022/03/01 04:09:29;;;;;;;8.55;5.03;;;6.50;46.00;;;;;;5024014;28;20041;-85
2022/03/01 04:11:55;;;;;;;9.32;4.38;;;6.50;46.00;;;;;;4990887;28;20053;-85
2022/03/01 04:14:21;;;;;;;7.85;4.78;;;6.50;46.00;;;;;;5008070;28;20164;-85
2022/03/01 04:16:47;;;;;;;11.35;5.00;;;6.50;46.00;;;;;;5023958;28;20080;-85
2022/03/01 04:19:13;;;;;;;7.70;5.03;;;6.50;46.00;;;;;;5023938;28;20420;-84
2022/03/01 04:21:40;;;;;;;12.13;5.85;;;6.50;46.00;;;;;;5007064;28;20093;-85
2022/03/01 04:24:06;;;;;;;8.93;4.53;;;6.50;46.00;;;;;;5008658;28;20128;-84
2022/03/01 04:26:33;;;;;;;8.48;4.82;;;6.50;46.10;;;;;;5007413;28;20034;-92
2022/03/01 04:28:58;;;;;;;10.13;5.32;;;6.50;46.10;;;;;;5009824;28;20064;-85
2022/03/01 04:31:25;;;;;;;12.70;5.60;;;6.50;46.10;;;;;;5008281;28;20065;-89
2022/03/01 04:33:50;;;;;;;10.93;5.75;;;6.50;46.10;;;;;;5009163;28;20042;-84
2022/03/01 04:36:16;;;;;;;9.18;5.35;;;6.50;46.10;;;;;;5008170;28;20087;-85
2022/03/01 04:38:43;;;;;;;10.90;5.65;;;6.50;46.10;;;;;;5008756;28;20124;-84
2022/03/01 04:41:09;;;;;;;10.23;5.88;;;6.50;46.20;;;;;;5007460;28;20149;-80
2022/03/01 04:43:36;;;;;;;12.88;5.78;;;6.50;46.20;;;;;;5008167;28;20137;-82
2022/03/01 04:46:03;;;;;;;9.10;5.20;;;6.50;46.20;;;;;;5022853;28;20034;-85
2022/03/01 04:48:29;;;;;;;11.30;5.45;;;6.50;46.30;;;;;;5008588;28;20411;-86
2022/03/01 04:50:56;;;;;;;9.70;5.75;;;6.50;46.30;;;;;;5008480;28;20084;-85
2022/03/01 04:53:22;;;;;;;13.20;5.80;;;6.50;46.30;;;;;;5008126;28;20038;-88
2022/03/01 04:55:48;;;;;;;11.85;5.53;;;6.50;46.30;;;;;;5007306;28;20077;-89
2022/03/01 04:58:14;;;;;;;11.00;5.57;;;6.50;46.30;;;;;;5010335;28;20042;-89
2022/03/01 05:00:40;;;;;;;11.05;5.43;;;6.50;46.40;;;;;;5008473;28;20437;-89
2022/03/01 05:03:06;;;;;;;8.07;5.55;;;6.50;46.30;;;;;;5010283;28;20040;-92
2022/03/01 05:05:32;;;;;;;11.35;5.60;;;6.60;46.40;;;;;;4991360;28;20124;-85
2022/03/01 05:07:58;;;;;;;11.98;5.93;;;6.50;46.20;;;;;;5003640;28;20037;-90
2022/03/01 05:10:24;;;;;;;8.23;5.88;;;6.50;46.20;;;;;;5011142;28;20068;-93
2022/03/01 05:12:52;;;;;;;10.05;6.00;;;6.50;46.10;;;;;;4994851;28;20034;-84
2022/03/01 05:15:20;;;;;;;11.07;5.50;;;6.60;46.10;;;;;;4977694;28;20034;-86
2022/03/01 05:17:47;;;;;;;9.52;5.72;;;6.60;46.10;;;;;;5008846;28;20033;-85
2022/03/01 05:20:14;;;;;;;12.35;6.28;;;6.60;46.10;;;;;;4990593;28;20141;-84
2022/03/01 05:22:42;;;;;;;11.18;5.50;;;6.50;47.00;;;;;;5002354;28;20084;-85
2022/03/01 05:25:10;;;;;;;12.45;5.80;;;6.60;48.90;;;;;;4989909;28;20080;-85
2022/03/01 05:27:38;;;;;;;13.25;5.25;;;6.60;50.60;;;;;;5006512;28;20045;-83
2022/03/01 05:30:12;;;;;;;11.88;6.05;;;6.70;51.90;;;;;;5005984;28;20097;-84
2022/03/01 05:32:39;;;;;;;9.70;5.60;;;6.80;52.70;;;;;;5020822;28;20050;-85
2022/03/01 05:35:09;;;;;;;11.73;5.50;;;7.00;53.40;;;;;;5002902;28;20121;-85
2022/03/01 05:37:36;;;;;;;10.18;4.90;;;7.10;53.60;;;;;;5007590;28;20038;-83
2022/03/01 05:40:04;;;;;;;9.57;4.60;;;7.30;53.50;;;;;;5020918;28;20049;-83
2022/03/01 05:42:30;;;;;;;8.52;5.00;;;7.40;52.90;;;;;;5007410;28;20128;-83
2022/03/01 05:44:56;;;;;;;11.00;4.30;;;7.60;52.50;;;;;;5004575;28;20050;-84
2022/03/01 05:47:23;;;;;;;9.02;5.28;;;7.70;52.10;;;;;;5022385;28;20029;-84
2022/03/01 05:49:49;;;;;;;9.23;4.30;;;7.80;51.80;;;;;;5005255;28;20041;-83
2022/03/01 05:52:14;;;;;;;21.27;5.72;;;7.90;52.30;;;;;;5017307;28;20030;-80
2022/03/01 05:54:40;;;;;;;15.20;6.95;;;8.00;52.10;;;;;;5007037;28;20488;-83
2022/03/01 05:57:06;;;;;;;20.35;6.78;;;8.10;50.80;;;;;;5021203;28;20033;-79
2022/03/01 05:59:32;;;;;;;24.20;6.78;;;8.20;49.80;;;;;;5005711;28;20117;-80
2022/03/01 06:01:58;;;;;;;19.95;7.65;;;8.30;48.90;;;;;;5005720;28;20111;-80
2022/03/01 06:04:24;;;;;;;15.32;7.30;;;8.40;48.60;;;;;;5006068;28;20039;-82
2022/03/01 06:06:50;;;;;;;14.45;6.57;;;8.50;48.40;;;;;;5003165;28;20045;-81
2022/03/01 06:09:16;;;;;;;12.95;6.57;;;8.50;48.20;;;;;;5021167;28;20085;-82
2022/03/01 06:11:42;;;;;;;20.50;7.75;;;8.60;47.90;;;;;;5018916;28;20108;-82
2022/03/01 06:14:08;;;;;;;20.30;7.78;;;8.70;47.80;;;;;;5005751;28;20030;-82
2022/03/01 06:16:34;;;;;;;14.90;6.63;;;8.80;47.70;;;;;;5001388;28;20092;-82
2022/03/01 06:19:00;;;;;;;16.88;6.68;;;8.90;47.30;;;;;;5004070;28;20026;-81
2022/03/01 06:21:26;;;;;;;21.15;6.88;;;9.00;47.10;;;;;;5018395;28;20026;-81
2022/03/01 06:23:52;;;;;;;22.92;8.32;;;9.10;46.90;;;;;;5005618;28;20061;-82
2022/03/01 06:26:18;;;;;;;14.85;6.65;;;9.20;46.80;;;;;;5004792;28;20041;-82
2022/03/01 06:28:44;;;;;;;19.92;7.25;;;9.30;46.60;;;;;;5005794;28;20504;-82
2022/03/01 06:31:10;;;;;;;15.77;6.68;;;9.40;46.20;;;;;;5005954;28;20713;-81
2022/03/01 06:33:36;;;;;;;14.77;6.72;;;9.50;45.80;;;;;;5004342;28;20074;-82
2022/03/01 06:36:02;;;;;;;21.38;7.15;;;9.60;45.50;;;;;;5020516;28;20055;-80
2022/03/01 06:38:28;;;;;;;19.73;7.30;;;9.70;45.10;;;;;;5005384;28;20191;-82
2022/03/01 06:40:56;;;;;;;20.88;7.00;;;9.70;44.70;;;;;;5005021;28;20221;-83
2022/03/01 06:43:23;;;;;;;16.05;6.65;;;9.80;44.60;;;;;;5005892;28;20068;-81
2022/03/01 06:45:49;;;;;;;15.23;7.03;;;9.90;44.40;;;;;;5003806;28;20049;-81
2022/03/01 06:48:15;;;;;;;16.30;6.57;;;10.00;44.00;;;;;;5005449;28;20531;-81
2022/03/01 06:50:41;;;;;;;18.30;7.78;;;10.10;44.20;;;;;;5006123;28;20049;-81
2022/03/01 06:53:13;;;;;;;14.93;7.43;;;10.10;44.10;;;;;;4985244;28;20038;-83
2022/03/01 06:55:51;;;;;;;14.57;6.10;;;10.20;43.80;;;;;;5005278;28;20481;-82
2022/03/01 06:58:17;;;;;;;14.75;6.03;;;10.30;43.50;;;;;;5003533;28;20424;-80
2022/03/01 07:00:44;;;;;;;17.67;6.20;;;10.40;43.50;;;;;;5004324;28;20052;-81
2022/03/01 07:03:10;;;;;;;14.27;6.78;;;10.50;43.30;;;;;;5005216;28;20469;-80
2022/03/01 07:05:36;;;;;;;13.75;7.43;;;10.60;43.20;;;;;;5005430;28;20108;-81
2022/03/01 07:08:02;;;;;;;16.63;6.70;;;10.60;42.90;;;;;;5005571;28;20030;-81
2022/03/01 07:10:28;;;;;;;14.93;6.82;;;10.70;42.80;;;;;;5004787;28;20504;-82
2022/03/01 07:12:54;;;;;;;11.70;6.90;;;10.80;42.70;;;;;;5005246;28;20049;-80
2022/03/01 07:15:20;;;;;;;24.15;7.45;;;10.90;42.60;;;;;;5005452;28;20042;-81
2022/03/01 07:17:47;;;;;;;25.42;6.75;;;10.90;42.40;;;;;;5021133;28;20038;-80
2022/03/01 07:20:14;;;;;;;18.95;6.72;;;11.00;42.20;;;;;;5003672;28;20129;-81
2022/03/01 07:22:40;;;;;;;14.02;6.97;;;11.10;42.30;;;;;;5007521;28;20033;-80
2022/03/01 07:25:07;;;;;;;20.20;7.57;;;11.20;42.20;;;;;;5009430;28;20045;-81
2022/03/01 07:27:33;;;;;;;19.40;6.55;;;11.20;42.10;;;;;;5008290;28;20103;-82
2022/03/01 07:29:59;;;;;;;16.50;7.20;;;11.30;42.00;;;;;;5008887;28;20069;-79
2022/03/01 07:32:25;;;;;;;15.50;7.13;;;11.30;41.90;;;;;;5024541;28;20026;-80
2022/03/01 07:34:51;;;;;;;19.55;7.07;;;11.40;41.50;;;;;;5008699;28;21443;-79
2022/03/01 07:37:17;;;;;;;17.95;6.72;;;11.50;41.40;;;;;;5008982;28;20034;-80
2022/03/01 07:39:43;;;;;;;16.38;6.75;;;11.50;41.70;;;;;;5009489;28;20038;-79
2022/03/01 07:42:10;;;;;;;16.80;6.82;;;11.60;41.50;;;;;;5009476;28;20033;-80
2022/03/01 07:44:37;;;;;;;12.55;6.53;;;11.60;41.50;;;;;;5008608;28;20042;-81
2022/03/01 07:47:07;;;;;;;19.88;6.68;;;11.70;41.70;;;;;;5008820;28;20080;-79
2022/03/01 07:49:36;;;;;;;14.65;6.10;;;11.70;41.30;;;;;;5006421;28;20026;-80
2022/03/01 07:52:02;;;;;;;14.13;6.25;;;11.80;41.40;;;;;;5009066;28;20041;-81
2022/03/01 07:54:28;;;;;;;14.27;5.53;;;11.80;41.30;;;;;;5008104;28;20033;-81
2022/03/01 07:56:54;;;;;;;18.08;6.35;;;11.80;41.00;;;;;;5008287;28;20110;-81
2022/03/01 07:59:20;;;;;;;17.17;6.72;;;11.90;41.00;;;;;;5009697;28;20400;-80
2022/03/01 08:01:46;;;;;;;15.90;6.63;;;11.90;41.10;;;;;;5005271;28;20033;-81
2022/03/01 08:04:12;;;;;;;13.45;5.72;;;11.90;41.00;;;;;;5008380;28;20456;-80
2022/03/01 08:06:38;;;;;;;15.00;5.95;;;11.90;41.10;;;;;;5007732;28;20038;-81
2022/03/01 08:09:04;;;;;;;23.52;6.75;;;12.00;41.10;;;;;;5005416;28;20037;-80
2022/03/01 08:11:30;;;;;;;13.85;6.13;;;12.00;41.20;;;;;;5008181;28;20026;-80
2022/03/01 08:13:56;;;;;;;16.27;6.22;;;12.00;41.10;;;;;;5014725;28;20443;-82
2022/03/01 08:16:23;;;;;;;14.60;6.72;;;12.00;40.80;;;;;;5008100;28;20117;-82
2022/03/01 08:18:49;;;;;;;14.13;5.80;;;12.00;40.80;;;;;;5008287;28;20520;-81
2022/03/01 08:21:15;;;;;;;16.92;6.00;;;12.00;40.70;;;;;;5008184;28;20029;-80
2022/03/01 08:23:42;;;;;;;17.73;6.50;;;12.00;40.80;;;;;;4990880;28;20029;-81
2022/03/01 08:26:08;;;;;;;16.83;6.05;;;12.00;40.60;;;;;;5007548;28;20413;-81
2022/03/01 08:28:34;;;;;;;14.00;5.45;;;11.90;40.80;;;;;;5007229;28;20409;-82
2022/03/01 08:31:00;;;;;;;15.18;6.53;;;11.90;40.80;;;;;;5007936;28;20048;-81
2022/03/01 08:33:26;;;;;;;12.05;5.43;;;11.90;40.80;;;;;;5007194;28;20065;-80
2022/03/01 08:35:55;;;;;;;14.02;5.13;;;11.90;40.80;;;;;;5023580;28;20034;-81
2022/03/01 08:38:21;;;;;;;19.63;5.88;;;11.80;40.80;;;;;;5022943;28;20133;-80
2022/03/01 08:40:47;;;;;;;11.98;5.15;;;11.80;40.50;;;;;;5007322;28;20079;-82
2022/03/01 08:43:15;;;;;;;7.93;4.25;;;11.80;40.50;;;;;;5007629;28;20097;-82
2022/03/01 08:45:41;;;;;;;7.88;3.50;;;11.80;40.50;;;;;;5021198;28;20045;-80
2022/03/01 08:48:07;;;;;;;8.52;3.70;;;11.80;40.20;;;;;;5019677;28;20036;-81
2022/03/01 08:50:34;;;;;;;7.20;3.78;;;11.70;40.20;;;;;;5024487;28;20030;-81
2022/03/01 08:53:01;;;;;;;11.93;4.13;;;11.70;40.20;;;;;;5006481;28;20037;-82
2022/03/01 08:55:28;;;;;;;14.35;5.15;;;11.70;40.00;;;;;;5008309;28;20034;-82
2022/03/01 08:57:54;;;;;;;12.15;5.78;;;11.70;40.10;;;;;;5023884;28;20120;-81
2022/03/01 09:00:20;;;;;;;9.00;4.25;;;11.70;39.80;;;;;;5006843;28;20034;-81
2022/03/01 09:02:49;;;;;;;23.25;13.00;;;11.70;40.50;;;;;;5007377;28;20036;-82
2022/03/01 09:05:14;;;;;;;18.98;8.93;;;11.70;40.00;;;;;;5006890;28;20567;-81
2022/03/01 09:07:41;;;;;;;13.88;7.03;;;11.70;40.20;;;;;;5007040;28;20054;-81
2022/03/01 09:10:08;;;;;;;11.18;5.95;;;11.70;40.00;;;;;;5007091;28;20034;-82
2022/03/01 09:12:34;;;;;;;9.95;5.68;;;11.70;40.00;;;;;;5022696;28;20548;-81
2022/03/01 09:15:00;;;;;;;8.00;4.65;;;11.70;39.70;;;;;;5006727;28;20117;-81
2022/03/01 09:17:26;;;;;;;13.63;3.97;;;11.60;39.90;;;;;;5007635;28;20045;-82
2022/03/01 09:19:52;;;;;;;15.25;4.25;;;11.60;39.80;;;;;;5005826;28;20501;-80
2022/03/01 09:22:18;;;;;;;17.02;5.00;;;11.60;39.60;;;;;;5001792;28;20041;-81
2022/03/01 09:24:44;;;;;;;12.23;4.13;;;11.60;39.60;;;;;;5006579;28;20045;-82
2022/03/01 09:27:10;;;;;;;10.82;4.50;;;11.60;39.70;;;;;;5022681;28;20120;-82
2022/03/01 09:29:37;;;;;;;10.93;4.50;;;11.60;39.50;;;;;;5007640;28;20026;-82
2022/03/01 09:32:04;;;;;;;9.05;4.03;;;11.60;39.10;;;;;;5006291;28;20033;-81
2022/03/01 09:34:30;;;;;;;8.93;3.80;;;11.60;39.20;;;;;;5006704;28;20549;-82
2022/03/01 09:36:57;;;;;;;13.05;3.95;;;11.60;39.10;;;;;;5021255;28;20296;-80
2022/03/01 09:39:23;;;;;;;10.38;4.22;;;11.60;39.00;;;;;;5005739;28;20038;-82
2022/03/01 09:41:50;;;;;;;7.72;4.10;;;11.50;38.80;;;;;;5006833;28;20034;-81
2022/03/01 09:44:18;;;;;;;9.75;3.85;;;11.50;38.50;;;;;;5004721;28;20532;-81
2022/03/01 09:46:44;;;;;;;10.80;4.20;;;11.50;38.60;;;;;;5005146;28;20046;-82
2022/03/01 09:49:11;;;;;;;7.95;3.83;;;11.40;38.60;;;;;;5006582;28;20065;-82
2022/03/01 09:51:43;;;;;;;9.38;4.13;;;11.40;38.60;;;;;;4996280;28;20038;-82
2022/03/01 09:54:09;;;;;;;9.90;3.63;;;11.40;38.50;;;;;;5005412;28;20165;-81
2022/03/01 09:56:37;;;;;;;13.77;3.55;;;11.40;38.50;;;;;;5021847;28;20128;-82
2022/03/01 09:59:05;;;;;;;10.18;3.85;;;11.30;38.40;;;;;;5006163;28;20045;-81
2022/03/01 10:01:32;;;;;;;11.65;3.80;;;11.30;38.10;;;;;;5006806;28;20029;-82
2022/03/01 10:04:11;;;;;;;10.85;3.83;;;11.30;38.20;;;;;;5021655;28;20030;-81
2022/03/01 10:06:48;;;;;;;11.85;3.65;;;11.30;38.30;;;;;;5006558;28;20044;-82
2022/03/01 10:09:18;;;;;;;9.43;3.83;;;11.20;38.80;;;;;;5018366;28;20033;-82
2022/03/01 10:11:44;;;;;;;8.70;3.58;;;11.30;38.10;;;;;;5006652;28;20594;-81
2022/03/01 10:14:10;;;;;;;7.68;3.95;;;11.20;38.00;;;;;;5006792;28;20057;-83
2022/03/01 10:16:42;;;;;;;7.18;3.17;;;11.20;38.00;;;;;;5005266;28;20030;-82
2022/03/01 10:19:19;;;;;;;11.23;3.70;;;11.20;38.20;;;;;;5005127;28;20466;-82
2022/03/01 10:21:56;;;;;;;10.73;4.03;;;11.20;37.90;;;;;;5005402;28;20437;-82
2022/03/01 10:24:22;;;;;;;9.68;4.03;;;11.20;37.70;;;;;;5006535;28;20068;-82
2022/03/01 10:26:49;;;;;;;7.97;3.80;;;11.20;37.60;;;;;;5005869;28;20026;-82
2022/03/01 10:29:18;;;;;;;9.88;4.40;;;11.10;37.50;;;;;;5006030;28;20424;-81
2022/03/01 10:31:52;;;;;;;16.65;5.60;;;11.10;37.30;;;;;;4967602;28;20133;-82
2022/03/01 10:34:21;;;;;;;11.00;5.10;;;11.20;37.70;;;;;;5003252;28;20087;-81
2022/03/01 10:36:49;;;;;;;17.63;6.10;;;11.20;37.50;;;;;;5004699;28;20048;-82
2022/03/01 10:39:20;;;;;;;15.10;5.95;;;11.20;37.60;;;;;;5003938;28;20485;-83
2022/03/01 10:41:49;;;;;;;14.63;5.53;;;11.20;37.70;;;;;;5005226;28;20044;-82
2022/03/01 10:44:20;;;;;;;11.18;5.03;;;11.20;37.90;;;;;;5003888;28;20049;-81
2022/03/01 10:46:50;;;;;;;15.13;5.68;;;11.20;37.70;;;;;;5005816;28;20034;-82
2022/03/01 10:49:25;;;;;;;10.95;5.13;;;11.20;37.10;;;;;;5005688;28;20423;-82
2022/03/01 10:52:03;;;;;;;13.85;4.68;;;11.10;36.80;;;;;;5005678;28;20867;-83
2022/03/01 10:54:32;;;;;;;8.98;4.75;;;11.10;36.40;;;;;;5005689;28;20034;-81
2022/03/01 10:57:02;;;;;;;9.65;4.70;;;11.10;36.40;;;;;;5019573;28;20037;-80
2022/03/01 10:59:30;;;;;;;11.02;4.63;;;11.10;36.30;;;;;;5006202;28;20030;-82
2022/03/01 11:01:56;;;;;;;11.30;4.15;;;11.10;36.70;;;;;;5016121;28;20037;-80
2022/03/01 11:04:25;;;;;;;12.48;4.80;;;11.10;36.50;;;;;;5003298;28;20088;-82
2022/03/01 11:06:59;;;;;;;13.07;4.82;;;11.10;36.20;;;;;;5019348;28;20034;-81
2022/03/01 11:09:28;;;;;;;10.93;4.55;;;11.10;36.00;;;;;;5002697;28;20031;-81
2022/03/01 11:11:55;;;;;;;9.00;4.20;;;11.10;36.20;;;;;;5005521;28;20038;-81
2022/03/01 11:14:40;;;;;;;12.48;5.88;;;11.10;36.40;;;;;;5005176;28;20026;-82
2022/03/01 11:17:18;;;;;;;15.07;5.90;;;11.10;36.60;;;;;;5004890;28;20509;-81
2022/03/01 11:20:03;;;;;;;17.75;6.28;;;11.10;36.80;;;;;;5019809;28;20050;-80
2022/03/01 11:22:41;;;;;;;18.70;5.35;;;11.00;36.80;;;;;;5020084;28;20501;-82
2022/03/01 11:25:25;;;;;;;16.75;5.93;;;11.10;37.10;;;;;;5003142;28;20076;-83
2022/03/01 11:27:52;;;;;;;12.90;5.65;;;11.10;36.70;;;;;;5004962;28;20105;-83
2022/03/01 11:30:27;;;;;;;12.88;5.13;;;11.10;36.70;;;;;;5005883;28;20104;-83
2022/03/01 11:32:57;;;;;;;12.97;6.37;;;11.10;36.70;;;;;;5020045;28;20034;-82
2022/03/01 11:35:26;;;;;;;11.32;5.90;;;11.10;36.70;;;;;;4999100;28;20392;-80
2022/03/01 11:38:18;;;;;;;18.98;5.43;;;11.10;36.70;;;;;;5004488;28;20065;-82
2022/03/01 11:40:47;;;;;;;12.75;5.50;;;11.00;36.70;;;;;;5002200;28;20719;-83
2022/03/01 11:43:17;;;;;;;22.50;5.85;;;11.00;36.60;;;;;;5003718;28;20088;-82
2022/03/01 11:45:57;;;;;;;18.98;7.18;;;11.10;37.00;;;;;;5019491;28;20517;-82
2022/03/01 11:48:25;;;;;;;17.95;6.82;;;11.10;37.30;;;;;;4999903;28;20525;-83
2022/03/01 11:50:58;;;;;;;14.45;7.25;;;11.10;37.40;;;;;;5003998;28;20116;-82
2022/03/01 11:53:27;;;;;;;16.95;6.45;;;11.10;37.50;;;;;;5003242;28;20156;-82
2022/03/01 11:55:57;;;;;;;16.10;6.70;;;11.10;37.30;;;;;;5016264;28;20492;-83
2022/03/01 11:58:24;;;;;;;17.27;6.95;;;11.10;37.40;;;;;;4981949;28;20173;-83
2022/03/01 12:00:54;;;;;;;17.55;6.60;;;11.10;37.50;;;;;;5003970;28;20038;-82
2022/03/01 12:03:26;;;;;;;16.45;6.70;;;11.10;37.20;;;;;;4999239;28;20116;-81
2022/03/01 12:05:54;;;;;;;17.88;6.45;;;11.10;37.10;;;;;;5003659;28;20111;-82
2022/03/01 12:08:23;;;;;;;17.50;6.32;;;11.10;36.80;;;;;;5023024;28;20041;-83
2022/03/01 12:10:57;;;;;;;18.00;6.10;;;11.10;36.80;;;;;;5007922;28;20088;-82
2022/03/01 12:13:38;;;;;;;14.35;6.18;;;11.10;36.40;;;;;;5008583;28;20057;-83
2022/03/01 12:16:05;;;;;;;13.18;5.57;;;11.10;36.30;;;;;;5023131;28;20040;-83
2022/03/01 12:18:34;;;;;;;18.75;5.75;;;11.10;36.50;;;;;;5023268;28;21299;-82
2022/03/01 12:21:03;;;;;;;13.18;6.55;;;11.10;36.40;;;;;;5007313;28;20175;-82
2022/03/01 12:23:43;;;;;;;18.90;7.82;;;11.10;36.40;;;;;;5007125;28;20030;-83
2022/03/01 12:26:13;;;;;;;17.17;6.53;;;11.10;36.60;;;;;;4986966;28;20033;-83
2022/03/01 12:28:47;;;;;;;15.95;6.68;;;11.10;36.50;;;;;;5008197;28;20467;-82
2022/03/01 12:31:26;;;;;;;21.13;6.70;;;11.10;36.30;;;;;;5008190;28;20066;-83
2022/03/01 12:34:01;;;;;;;17.88;7.10;;;11.10;36.20;;;;;;5022540;28;20069;-82
2022/03/01 12:36:31;;;;;;;;;;;11.10;36.00;;;;;;5022969;28;20042;-83
2022/03/01 12:39:00;;;;;;;18.60;6.50;;;11.10;36.00;;;;;;5006816;28;20435;-83
2022/03/01 12:41:26;;;;;;;22.55;7.13;;;11.10;36.20;;;;;;5014791;28;20028;-83
2022/03/01 12:44:00;;;;;;;17.13;7.03;;;11.10;36.60;;;;;;5003870;28;20129;-83
2022/03/01 12:46:27;;;;;;;16.10;7.15;;;11.10;36.40;;;;;;5007570;28;20128;-84
2022/03/01 12:48:54;;;;;;;12.98;5.93;;;11.10;36.50;;;;;;5007425;28;20048;-82